Terminal Aerodrome Forecast
Issued by NWS

Home | Current Version | Previous Version | Text Only | Print | Product List | Glossary On
Versions: 1 2 3 4 5 6 7 8 9 10 11 12 13 14 15 16 17 18 19 20 21 22 23 24
000
FTUS43 KAPX 201329 CCA
TAFPLN
TAF COR
KPLN 201329Z 2013/2112 11010G17KT 2SM -FZRA BR OVC004
     FM201600 11008KT 3SM -RA BR OVC006 WS020/20030KT
     FM202000 25006KT 2SM -DZ BR OVC003
     FM210300 29008KT 2SM -DZ BR OVC003
     FM210500 30009KT P6SM OVC008
     FM210900 30011KT P6SM BKN020=

USA.gov is the U.S. government's official web portal to all federal, state and local government web resources and services.